Pleasant Grove, Mississippi
Current Conditions -  °F | °C
As of 12:15 PM on Friday 19 Dec 2014 (Local Time) from KUOX Reporting Station
Overcast Overcast  
Wind Chill: 40°   Ceiling: 3800
Heat Index: 43°   Visibility: 10mi
Dew Point: 34°   Wind: 5mph
Humidity: 70%   Direction: 40°NE
Pressure: 30.25"   Gusts: NA
Location:  34.4208°N, 89.9212°W
Report Text: KUOX 191815Z AUTO 04004KT 10SM OVC038 06/01 A3025 RMK AO2 PWINO PNO
Loading
Personal Weather Stations






























Interactive Weather Map New forecast layout! Learn more

10-Day Weather Forecast

Advertisements
Track Severe Weather on mobile